sensor_id;sensor_type;location;lat;lon;timestamp;P1;durP1;ratioP1;P2;durP2;ratioP2
26484;SDS011;18083;50.560;7.262;2023-10-19T00:00:39;17.20;;;13.22;;
26484;SDS011;18083;50.560;7.262;2023-10-19T00:03:08;25.02;;;15.00;;
26484;SDS011;18083;50.560;7.262;2023-10-19T00:05:36;21.35;;;14.80;;
26484;SDS011;18083;50.560;7.262;2023-10-19T00:08:03;19.63;;;13.87;;
26484;SDS011;18083;50.560;7.262;2023-10-19T00:10:42;17.13;;;13.07;;
26484;SDS011;18083;50.560;7.262;2023-10-19T00:13:10;18.30;;;11.70;;
26484;SDS011;18083;50.560;7.262;2023-10-19T00:15:38;15.63;;;12.05;;
26484;SDS011;18083;50.560;7.262;2023-10-19T00:18:17;19.77;;;13.53;;
26484;SDS011;18083;50.560;7.262;2023-10-19T00:20:47;22.13;;;14.07;;
26484;SDS011;18083;50.560;7.262;2023-10-19T00:23:16;21.60;;;13.72;;
26484;SDS011;18083;50.560;7.262;2023-10-19T00:25:47;19.12;;;14.07;;
26484;SDS011;18083;50.560;7.262;2023-10-19T00:28:17;23.25;;;14.13;;
26484;SDS011;18083;50.560;7.262;2023-10-19T00:30:45;20.08;;;13.15;;
26484;SDS011;18083;50.560;7.262;2023-10-19T00:33:14;19.00;;;13.93;;
26484;SDS011;18083;50.560;7.262;2023-10-19T00:35:48;20.17;;;14.07;;
26484;SDS011;18083;50.560;7.262;2023-10-19T00:38:26;19.82;;;14.20;;
26484;SDS011;18083;50.560;7.262;2023-10-19T00:40:58;25.17;;;14.87;;
26484;SDS011;18083;50.560;7.262;2023-10-19T00:43:30;24.07;;;14.20;;
26484;SDS011;18083;50.560;7.262;2023-10-19T00:46:05;19.65;;;14.20;;
26484;SDS011;18083;50.560;7.262;2023-10-19T00:48:50;20.57;;;12.90;;
26484;SDS011;18083;50.560;7.262;2023-10-19T00:51:21;19.17;;;13.60;;
26484;SDS011;18083;50.560;7.262;2023-10-19T00:54:18;19.32;;;13.35;;
26484;SDS011;18083;50.560;7.262;2023-10-19T00:56:46;24.67;;;16.50;;
26484;SDS011;18083;50.560;7.262;2023-10-19T00:59:11;19.27;;;14.68;;
26484;SDS011;18083;50.560;7.262;2023-10-19T01:01:41;22.63;;;15.27;;
26484;SDS011;18083;50.560;7.262;2023-10-19T01:04:11;26.50;;;17.47;;
26484;SDS011;18083;50.560;7.262;2023-10-19T01:06:41;22.35;;;15.60;;
26484;SDS011;18083;50.560;7.262;2023-10-19T01:09:12;21.30;;;15.03;;
26484;SDS011;18083;50.560;7.262;2023-10-19T01:11:44;24.92;;;16.93;;
26484;SDS011;18083;50.560;7.262;2023-10-19T01:14:21;23.83;;;15.53;;
26484;SDS011;18083;50.560;7.262;2023-10-19T01:16:48;27.00;;;20.27;;
26484;SDS011;18083;50.560;7.262;2023-10-19T01:19:16;20.70;;;14.90;;
26484;SDS011;18083;50.560;7.262;2023-10-19T01:21:45;20.72;;;15.63;;
26484;SDS011;18083;50.560;7.262;2023-10-19T01:24:14;22.35;;;16.55;;
26484;SDS011;18083;50.560;7.262;2023-10-19T01:26:43;19.50;;;14.33;;
26484;SDS011;18083;50.560;7.262;2023-10-19T01:29:12;21.97;;;13.73;;
26484;SDS011;18083;50.560;7.262;2023-10-19T01:31:44;21.35;;;15.80;;
26484;SDS011;18083;50.560;7.262;2023-10-19T01:34:24;21.20;;;15.43;;
26484;SDS011;18083;50.560;7.262;2023-10-19T01:36:53;22.27;;;14.30;;
26484;SDS011;18083;50.560;7.262;2023-10-19T01:39:22;20.97;;;14.37;;
26484;SDS011;18083;50.560;7.262;2023-10-19T01:41:49;20.77;;;14.45;;
26484;SDS011;18083;50.560;7.262;2023-10-19T01:44:17;21.23;;;14.28;;
26484;SDS011;18083;50.560;7.262;2023-10-19T01:46:46;21.33;;;14.35;;
26484;SDS011;18083;50.560;7.262;2023-10-19T01:49:14;19.10;;;14.35;;
26484;SDS011;18083;50.560;7.262;2023-10-19T01:51:43;19.52;;;12.82;;
26484;SDS011;18083;50.560;7.262;2023-10-19T01:54:12;18.65;;;13.80;;
26484;SDS011;18083;50.560;7.262;2023-10-19T01:56:41;16.70;;;12.83;;
26484;SDS011;18083;50.560;7.262;2023-10-19T01:59:09;20.37;;;13.85;;
26484;SDS011;18083;50.560;7.262;2023-10-19T02:01:38;22.60;;;13.53;;
26484;SDS011;18083;50.560;7.262;2023-10-19T02:04:07;20.92;;;13.88;;
26484;SDS011;18083;50.560;7.262;2023-10-19T02:06:35;20.77;;;13.10;;
26484;SDS011;18083;50.560;7.262;2023-10-19T02:09:05;19.60;;;12.85;;
26484;SDS011;18083;50.560;7.262;2023-10-19T02:11:37;16.97;;;12.37;;
26484;SDS011;18083;50.560;7.262;2023-10-19T02:14:06;21.02;;;13.03;;
26484;SDS011;18083;50.560;7.262;2023-10-19T02:16:35;18.65;;;12.80;;
26484;SDS011;18083;50.560;7.262;2023-10-19T02:19:03;21.45;;;15.03;;
26484;SDS011;18083;50.560;7.262;2023-10-19T02:21:30;22.30;;;13.50;;
26484;SDS011;18083;50.560;7.262;2023-10-19T02:23:58;18.23;;;11.88;;
26484;SDS011;18083;50.560;7.262;2023-10-19T02:26:26;19.32;;;13.10;;
26484;SDS011;18083;50.560;7.262;2023-10-19T02:28:56;20.60;;;15.18;;
26484;SDS011;18083;50.560;7.262;2023-10-19T02:31:24;20.25;;;13.20;;
26484;SDS011;18083;50.560;7.262;2023-10-19T02:33:53;17.77;;;12.95;;
26484;SDS011;18083;50.560;7.262;2023-10-19T02:36:26;18.87;;;12.90;;
26484;SDS011;18083;50.560;7.262;2023-10-19T02:38:56;17.37;;;11.80;;
26484;SDS011;18083;50.560;7.262;2023-10-19T02:41:27;16.32;;;12.82;;
26484;SDS011;18083;50.560;7.262;2023-10-19T02:43:57;16.45;;;11.73;;
26484;SDS011;18083;50.560;7.262;2023-10-19T02:46:33;18.70;;;12.40;;
26484;SDS011;18083;50.560;7.262;2023-10-19T02:49:08;18.10;;;11.90;;
26484;SDS011;18083;50.560;7.262;2023-10-19T02:51:42;15.43;;;12.75;;
26484;SDS011;18083;50.560;7.262;2023-10-19T02:54:10;22.58;;;14.25;;
26484;SDS011;18083;50.560;7.262;2023-10-19T02:56:40;23.55;;;14.85;;
26484;SDS011;18083;50.560;7.262;2023-10-19T02:59:09;28.62;;;16.52;;
26484;SDS011;18083;50.560;7.262;2023-10-19T03:01:37;20.95;;;14.87;;
26484;SDS011;18083;50.560;7.262;2023-10-19T03:04:05;23.55;;;14.47;;
26484;SDS011;18083;50.560;7.262;2023-10-19T03:06:32;21.97;;;15.10;;
26484;SDS011;18083;50.560;7.262;2023-10-19T03:09:00;23.32;;;13.68;;
26484;SDS011;18083;50.560;7.262;2023-10-19T03:11:29;20.82;;;14.65;;
26484;SDS011;18083;50.560;7.262;2023-10-19T03:13:56;19.92;;;15.70;;
26484;SDS011;18083;50.560;7.262;2023-10-19T03:16:24;19.87;;;14.07;;
26484;SDS011;18083;50.560;7.262;2023-10-19T03:18:53;18.90;;;14.70;;
26484;SDS011;18083;50.560;7.262;2023-10-19T03:21:21;18.32;;;13.50;;
26484;SDS011;18083;50.560;7.262;2023-10-19T03:23:50;19.37;;;13.35;;
26484;SDS011;18083;50.560;7.262;2023-10-19T03:26:19;17.60;;;14.18;;
26484;SDS011;18083;50.560;7.262;2023-10-19T03:29:00;18.75;;;13.22;;
26484;SDS011;18083;50.560;7.262;2023-10-19T03:31:29;17.60;;;13.65;;
26484;SDS011;18083;50.560;7.262;2023-10-19T03:55:37;23.65;;;15.83;;
26484;SDS011;18083;50.560;7.262;2023-10-19T03:58:21;19.77;;;14.40;;
26484;SDS011;18083;50.560;7.262;2023-10-19T04:16:46;21.17;;;14.15;;
26484;SDS011;18083;50.560;7.262;2023-10-19T04:19:22;19.95;;;13.70;;
26484;SDS011;18083;50.560;7.262;2023-10-19T04:22:01;31.12;;;17.65;;
26484;SDS011;18083;50.560;7.262;2023-10-19T04:27:20;21.42;;;15.88;;
26484;SDS011;18083;50.560;7.262;2023-10-19T05:30:17;26.33;;;15.25;;
26484;SDS011;18083;50.560;7.262;2023-10-19T05:35:31;21.27;;;13.25;;
26484;SDS011;18083;50.560;7.262;2023-10-19T05:38:21;20.55;;;14.23;;
26484;SDS011;18083;50.560;7.262;2023-10-19T05:40:52;20.12;;;13.13;;
26484;SDS011;18083;50.560;7.262;2023-10-19T05:43:34;23.27;;;14.35;;
26484;SDS011;18083;50.560;7.262;2023-10-19T05:46:05;21.90;;;12.95;;
26484;SDS011;18083;50.560;7.262;2023-10-19T05:48:57;20.92;;;14.30;;
26484;SDS011;18083;50.560;7.262;2023-10-19T05:51:25;17.75;;;12.78;;
26484;SDS011;18083;50.560;7.262;2023-10-19T05:56:58;18.77;;;13.58;;
26484;SDS011;18083;50.560;7.262;2023-10-19T06:02:26;24.75;;;13.20;;
26484;SDS011;18083;50.560;7.262;2023-10-19T06:05:04;17.48;;;12.82;;
26484;SDS011;18083;50.560;7.262;2023-10-19T06:07:29;18.35;;;13.13;;
26484;SDS011;18083;50.560;7.262;2023-10-19T06:13:28;18.75;;;13.88;;
26484;SDS011;18083;50.560;7.262;2023-10-19T06:15:31;22.00;;;15.35;;
26484;SDS011;18083;50.560;7.262;2023-10-19T06:23:30;24.50;;;13.98;;
26484;SDS011;18083;50.560;7.262;2023-10-19T06:31:24;15.98;;;11.73;;
26484;SDS011;18083;50.560;7.262;2023-10-19T06:34:23;19.85;;;11.88;;
26484;SDS011;18083;50.560;7.262;2023-10-19T06:36:58;16.70;;;12.00;;
26484;SDS011;18083;50.560;7.262;2023-10-19T06:39:21;18.73;;;12.60;;
26484;SDS011;18083;50.560;7.262;2023-10-19T06:41:50;18.25;;;11.00;;
26484;SDS011;18083;50.560;7.262;2023-10-19T06:44:20;21.82;;;13.30;;
26484;SDS011;18083;50.560;7.262;2023-10-19T06:46:58;13.90;;;10.72;;
26484;SDS011;18083;50.560;7.262;2023-10-19T06:49:54;17.27;;;12.13;;
26484;SDS011;18083;50.560;7.262;2023-10-19T06:52:26;18.60;;;11.73;;
26484;SDS011;18083;50.560;7.262;2023-10-19T07:08:52;18.55;;;11.78;;
26484;SDS011;18083;50.560;7.262;2023-10-19T07:16:41;22.27;;;11.22;;
26484;SDS011;18083;50.560;7.262;2023-10-19T07:19:08;15.45;;;11.03;;
26484;SDS011;18083;50.560;7.262;2023-10-19T07:21:36;16.20;;;11.55;;
26484;SDS011;18083;50.560;7.262;2023-10-19T07:32:43;15.18;;;10.70;;
26484;SDS011;18083;50.560;7.262;2023-10-19T07:35:11;17.82;;;10.40;;
26484;SDS011;18083;50.560;7.262;2023-10-19T07:37:38;17.48;;;10.48;;
26484;SDS011;18083;50.560;7.262;2023-10-19T07:40:06;13.45;;;10.68;;
26484;SDS011;18083;50.560;7.262;2023-10-19T07:42:34;15.68;;;10.32;;
26484;SDS011;18083;50.560;7.262;2023-10-19T07:45:03;19.32;;;10.78;;
26484;SDS011;18083;50.560;7.262;2023-10-19T07:47:31;15.48;;;10.53;;
26484;SDS011;18083;50.560;7.262;2023-10-19T07:49:58;15.48;;;9.48;;
26484;SDS011;18083;50.560;7.262;2023-10-19T07:52:27;13.38;;;8.95;;
26484;SDS011;18083;50.560;7.262;2023-10-19T07:54:55;14.47;;;9.95;;
26484;SDS011;18083;50.560;7.262;2023-10-19T07:57:23;13.85;;;9.33;;
26484;SDS011;18083;50.560;7.262;2023-10-19T07:59:51;16.25;;;9.60;;
26484;SDS011;18083;50.560;7.262;2023-10-19T08:02:20;10.55;;;7.87;;
26484;SDS011;18083;50.560;7.262;2023-10-19T08:04:50;12.80;;;7.65;;
26484;SDS011;18083;50.560;7.262;2023-10-19T08:07:23;13.18;;;8.53;;
26484;SDS011;18083;50.560;7.262;2023-10-19T08:09:54;11.88;;;8.15;;
26484;SDS011;18083;50.560;7.262;2023-10-19T08:12:24;10.63;;;7.40;;
26484;SDS011;18083;50.560;7.262;2023-10-19T08:14:55;7.97;;;6.80;;
26484;SDS011;18083;50.560;7.262;2023-10-19T08:17:24;8.65;;;6.08;;
26484;SDS011;18083;50.560;7.262;2023-10-19T08:19:54;7.40;;;5.70;;
26484;SDS011;18083;50.560;7.262;2023-10-19T08:22:27;9.55;;;6.53;;
26484;SDS011;18083;50.560;7.262;2023-10-19T08:25:02;10.30;;;5.85;;
26484;SDS011;18083;50.560;7.262;2023-10-19T08:27:33;8.00;;;5.85;;
26484;SDS011;18083;50.560;7.262;2023-10-19T08:30:04;7.85;;;5.28;;
26484;SDS011;18083;50.560;7.262;2023-10-19T08:32:33;7.75;;;5.53;;
26484;SDS011;18083;50.560;7.262;2023-10-19T08:35:02;9.15;;;5.37;;
26484;SDS011;18083;50.560;7.262;2023-10-19T08:37:32;12.10;;;5.70;;
26484;SDS011;18083;50.560;7.262;2023-10-19T08:40:02;9.50;;;5.65;;
26484;SDS011;18083;50.560;7.262;2023-10-19T08:42:32;9.23;;;5.72;;
26484;SDS011;18083;50.560;7.262;2023-10-19T08:45:04;11.18;;;7.08;;
26484;SDS011;18083;50.560;7.262;2023-10-19T08:47:32;8.38;;;5.42;;
26484;SDS011;18083;50.560;7.262;2023-10-19T08:50:02;11.73;;;5.72;;
26484;SDS011;18083;50.560;7.262;2023-10-19T08:52:29;8.75;;;4.30;;
26484;SDS011;18083;50.560;7.262;2023-10-19T08:54:58;6.95;;;4.62;;
26484;SDS011;18083;50.560;7.262;2023-10-19T08:57:29;13.05;;;4.75;;
26484;SDS011;18083;50.560;7.262;2023-10-19T08:59:57;6.08;;;4.03;;
26484;SDS011;18083;50.560;7.262;2023-10-19T09:02:25;9.48;;;4.50;;
26484;SDS011;18083;50.560;7.262;2023-10-19T09:04:53;7.17;;;4.30;;
26484;SDS011;18083;50.560;7.262;2023-10-19T09:07:22;6.97;;;4.33;;
26484;SDS011;18083;50.560;7.262;2023-10-19T09:09:50;11.30;;;4.25;;
26484;SDS011;18083;50.560;7.262;2023-10-19T09:12:19;9.98;;;5.08;;
26484;SDS011;18083;50.560;7.262;2023-10-19T09:14:46;10.82;;;4.47;;
26484;SDS011;18083;50.560;7.262;2023-10-19T09:17:14;6.35;;;3.60;;
26484;SDS011;18083;50.560;7.262;2023-10-19T09:19:42;6.92;;;4.10;;
26484;SDS011;18083;50.560;7.262;2023-10-19T09:22:10;5.97;;;3.52;;
26484;SDS011;18083;50.560;7.262;2023-10-19T09:24:48;6.33;;;3.67;;
26484;SDS011;18083;50.560;7.262;2023-10-19T09:27:16;7.33;;;4.12;;
26484;SDS011;18083;50.560;7.262;2023-10-19T09:29:46;9.75;;;3.62;;
26484;SDS011;18083;50.560;7.262;2023-10-19T09:32:14;6.22;;;2.80;;
26484;SDS011;18083;50.560;7.262;2023-10-19T09:34:44;8.13;;;4.15;;
26484;SDS011;18083;50.560;7.262;2023-10-19T09:37:14;7.00;;;3.42;;
26484;SDS011;18083;50.560;7.262;2023-10-19T09:39:42;6.67;;;4.22;;
26484;SDS011;18083;50.560;7.262;2023-10-19T09:42:14;7.50;;;4.22;;
26484;SDS011;18083;50.560;7.262;2023-10-19T09:44:44;9.23;;;4.28;;
26484;SDS011;18083;50.560;7.262;2023-10-19T09:47:12;11.43;;;4.30;;
26484;SDS011;18083;50.560;7.262;2023-10-19T09:49:41;11.93;;;4.70;;
26484;SDS011;18083;50.560;7.262;2023-10-19T09:52:10;8.45;;;4.15;;
26484;SDS011;18083;50.560;7.262;2023-10-19T09:57:12;6.87;;;3.37;;
26484;SDS011;18083;50.560;7.262;2023-10-19T09:59:40;7.00;;;3.17;;
26484;SDS011;18083;50.560;7.262;2023-10-19T10:02:10;5.60;;;3.37;;
26484;SDS011;18083;50.560;7.262;2023-10-19T10:04:44;7.45;;;3.92;;
26484;SDS011;18083;50.560;7.262;2023-10-19T10:07:15;4.80;;;2.50;;
26484;SDS011;18083;50.560;7.262;2023-10-19T10:09:43;7.10;;;2.52;;
26484;SDS011;18083;50.560;7.262;2023-10-19T10:12:23;10.05;;;3.27;;
26484;SDS011;18083;50.560;7.262;2023-10-19T10:15:00;9.15;;;3.37;;
26484;SDS011;18083;50.560;7.262;2023-10-19T10:17:29;5.75;;;3.22;;
26484;SDS011;18083;50.560;7.262;2023-10-19T10:22:43;5.47;;;3.37;;
26484;SDS011;18083;50.560;7.262;2023-10-19T10:25:25;7.55;;;3.90;;
26484;SDS011;18083;50.560;7.262;2023-10-19T10:27:55;6.10;;;3.20;;
26484;SDS011;18083;50.560;7.262;2023-10-19T10:30:23;7.25;;;3.27;;
26484;SDS011;18083;50.560;7.262;2023-10-19T10:32:53;9.55;;;4.05;;
26484;SDS011;18083;50.560;7.262;2023-10-19T10:38:10;6.83;;;3.25;;
26484;SDS011;18083;50.560;7.262;2023-10-19T10:40:48;4.67;;;3.22;;
26484;SDS011;18083;50.560;7.262;2023-10-19T10:43:17;8.20;;;4.30;;
26484;SDS011;18083;50.560;7.262;2023-10-19T10:45:45;6.10;;;4.65;;
26484;SDS011;18083;50.560;7.262;2023-10-19T10:48:16;10.95;;;3.98;;
26484;SDS011;18083;50.560;7.262;2023-10-19T10:50:44;6.72;;;4.35;;
26484;SDS011;18083;50.560;7.262;2023-10-19T10:53:13;8.88;;;4.25;;
26484;SDS011;18083;50.560;7.262;2023-10-19T10:55:44;7.22;;;4.20;;
26484;SDS011;18083;50.560;7.262;2023-10-19T10:58:15;8.78;;;4.17;;
26484;SDS011;18083;50.560;7.262;2023-10-19T11:00:43;7.67;;;3.70;;
26484;SDS011;18083;50.560;7.262;2023-10-19T11:03:13;8.15;;;4.87;;
26484;SDS011;18083;50.560;7.262;2023-10-19T11:05:42;9.08;;;5.20;;
26484;SDS011;18083;50.560;7.262;2023-10-19T11:08:16;10.63;;;3.92;;
26484;SDS011;18083;50.560;7.262;2023-10-19T11:10:47;5.05;;;3.58;;
26484;SDS011;18083;50.560;7.262;2023-10-19T11:13:15;8.80;;;4.20;;
26484;SDS011;18083;50.560;7.262;2023-10-19T11:15:50;9.48;;;3.50;;
26484;SDS011;18083;50.560;7.262;2023-10-19T11:18:28;8.23;;;4.22;;
26484;SDS011;18083;50.560;7.262;2023-10-19T11:20:59;6.47;;;3.55;;
26484;SDS011;18083;50.560;7.262;2023-10-19T11:47:36;6.95;;;2.58;;
26484;SDS011;18083;50.560;7.262;2023-10-19T11:50:22;5.85;;;2.47;;
26484;SDS011;18083;50.560;7.262;2023-10-19T11:53:02;5.62;;;2.42;;
26484;SDS011;18083;50.560;7.262;2023-10-19T12:04:21;9.03;;;3.35;;
26484;SDS011;18083;50.560;7.262;2023-10-19T12:06:54;5.67;;;4.25;;
26484;SDS011;18083;50.560;7.262;2023-10-19T12:25:00;11.05;;;2.65;;
26484;SDS011;18083;50.560;7.262;2023-10-19T12:27:44;6.87;;;2.50;;
26484;SDS011;18083;50.560;7.262;2023-10-19T12:30:13;9.03;;;4.12;;
26484;SDS011;18083;50.560;7.262;2023-10-19T12:38:04;9.30;;;2.80;;
26484;SDS011;18083;50.560;7.262;2023-10-19T13:02:14;9.95;;;4.10;;
26484;SDS011;18083;50.560;7.262;2023-10-19T13:04:42;11.35;;;3.98;;
26484;SDS011;18083;50.560;7.262;2023-10-19T13:07:11;7.97;;;4.17;;
26484;SDS011;18083;50.560;7.262;2023-10-19T13:09:38;6.20;;;4.03;;
26484;SDS011;18083;50.560;7.262;2023-10-19T13:12:06;6.30;;;4.30;;
26484;SDS011;18083;50.560;7.262;2023-10-19T13:14:34;12.53;;;4.22;;
26484;SDS011;18083;50.560;7.262;2023-10-19T13:17:01;6.08;;;4.58;;
26484;SDS011;18083;50.560;7.262;2023-10-19T13:19:30;6.30;;;4.78;;
26484;SDS011;18083;50.560;7.262;2023-10-19T13:21:58;9.58;;;4.45;;
26484;SDS011;18083;50.560;7.262;2023-10-19T13:33:07;10.95;;;5.85;;
26484;SDS011;18083;50.560;7.262;2023-10-19T13:36:03;11.10;;;5.42;;
26484;SDS011;18083;50.560;7.262;2023-10-19T13:38:50;7.17;;;5.75;;
26484;SDS011;18083;50.560;7.262;2023-10-19T13:52:19;16.85;;;5.67;;
26484;SDS011;18083;50.560;7.262;2023-10-19T14:05:51;9.08;;;5.53;;
26484;SDS011;18083;50.560;7.262;2023-10-19T14:08:21;9.30;;;5.47;;
26484;SDS011;18083;50.560;7.262;2023-10-19T14:10:48;7.12;;;5.37;;
26484;SDS011;18083;50.560;7.262;2023-10-19T14:13:16;9.73;;;5.50;;
26484;SDS011;18083;50.560;7.262;2023-10-19T14:21:42;9.68;;;6.95;;
26484;SDS011;18083;50.560;7.262;2023-10-19T14:24:12;13.72;;;6.17;;
26484;SDS011;18083;50.560;7.262;2023-10-19T14:26:39;9.13;;;6.45;;
26484;SDS011;18083;50.560;7.262;2023-10-19T14:32:11;7.22;;;5.95;;
26484;SDS011;18083;50.560;7.262;2023-10-19T14:43:12;14.55;;;7.25;;
26484;SDS011;18083;50.560;7.262;2023-10-19T14:51:26;9.73;;;6.75;;
26484;SDS011;18083;50.560;7.262;2023-10-19T14:53:54;9.18;;;7.55;;
26484;SDS011;18083;50.560;7.262;2023-10-19T14:56:21;11.35;;;7.37;;
26484;SDS011;18083;50.560;7.262;2023-10-19T14:58:49;10.13;;;6.37;;
26484;SDS011;18083;50.560;7.262;2023-10-19T15:01:23;10.82;;;7.67;;
26484;SDS011;18083;50.560;7.262;2023-10-19T15:03:53;10.40;;;7.20;;
26484;SDS011;18083;50.560;7.262;2023-10-19T15:06:21;13.15;;;8.05;;
26484;SDS011;18083;50.560;7.262;2023-10-19T15:08:49;9.68;;;6.35;;
26484;SDS011;18083;50.560;7.262;2023-10-19T15:11:17;9.78;;;6.92;;
26484;SDS011;18083;50.560;7.262;2023-10-19T15:13:46;12.35;;;6.62;;
26484;SDS011;18083;50.560;7.262;2023-10-19T15:16:14;11.00;;;6.15;;
26484;SDS011;18083;50.560;7.262;2023-10-19T15:18:42;10.00;;;6.15;;
26484;SDS011;18083;50.560;7.262;2023-10-19T15:21:09;8.63;;;6.05;;
26484;SDS011;18083;50.560;7.262;2023-10-19T15:23:37;7.12;;;5.05;;
26484;SDS011;18083;50.560;7.262;2023-10-19T15:26:05;5.85;;;5.00;;
26484;SDS011;18083;50.560;7.262;2023-10-19T15:28:33;10.38;;;5.87;;
26484;SDS011;18083;50.560;7.262;2023-10-19T15:31:00;9.05;;;5.58;;
26484;SDS011;18083;50.560;7.262;2023-10-19T15:49:54;9.25;;;6.30;;
26484;SDS011;18083;50.560;7.262;2023-10-19T15:52:24;10.63;;;6.60;;
26484;SDS011;18083;50.560;7.262;2023-10-19T16:42:49;14.85;;;11.33;;
26484;SDS011;18083;50.560;7.262;2023-10-19T16:45:16;19.02;;;12.40;;
26484;SDS011;18083;50.560;7.262;2023-10-19T16:47:44;13.85;;;10.03;;
26484;SDS011;18083;50.560;7.262;2023-10-19T16:50:11;13.88;;;11.15;;
26484;SDS011;18083;50.560;7.262;2023-10-19T16:52:40;15.83;;;9.63;;
26484;SDS011;18083;50.560;7.262;2023-10-19T16:55:08;11.43;;;9.55;;
26484;SDS011;18083;50.560;7.262;2023-10-19T16:57:36;11.05;;;8.10;;
26484;SDS011;18083;50.560;7.262;2023-10-19T17:00:04;9.98;;;7.90;;
26484;SDS011;18083;50.560;7.262;2023-10-19T17:02:32;10.85;;;7.50;;
26484;SDS011;18083;50.560;7.262;2023-10-19T17:04:59;13.28;;;9.35;;
26484;SDS011;18083;50.560;7.262;2023-10-19T17:07:28;11.20;;;7.83;;
26484;SDS011;18083;50.560;7.262;2023-10-19T17:09:57;12.65;;;8.15;;
26484;SDS011;18083;50.560;7.262;2023-10-19T17:12:26;10.28;;;7.67;;
26484;SDS011;18083;50.560;7.262;2023-10-19T17:14:58;12.25;;;9.08;;
26484;SDS011;18083;50.560;7.262;2023-10-19T17:17:31;11.85;;;8.65;;
26484;SDS011;18083;50.560;7.262;2023-10-19T17:19:58;13.53;;;9.15;;
26484;SDS011;18083;50.560;7.262;2023-10-19T17:22:28;12.43;;;8.95;;
26484;SDS011;18083;50.560;7.262;2023-10-19T17:24:56;9.08;;;8.05;;
26484;SDS011;18083;50.560;7.262;2023-10-19T17:27:23;10.88;;;9.25;;
26484;SDS011;18083;50.560;7.262;2023-10-19T17:29:50;11.88;;;9.08;;
26484;SDS011;18083;50.560;7.262;2023-10-19T17:32:18;11.73;;;8.20;;
26484;SDS011;18083;50.560;7.262;2023-10-19T17:34:47;11.97;;;8.70;;
26484;SDS011;18083;50.560;7.262;2023-10-19T17:37:15;15.63;;;7.95;;
26484;SDS011;18083;50.560;7.262;2023-10-19T17:39:44;11.00;;;8.20;;
26484;SDS011;18083;50.560;7.262;2023-10-19T17:42:15;11.65;;;8.20;;
26484;SDS011;18083;50.560;7.262;2023-10-19T17:44:45;12.23;;;8.50;;
26484;SDS011;18083;50.560;7.262;2023-10-19T17:47:12;10.28;;;8.23;;
26484;SDS011;18083;50.560;7.262;2023-10-19T17:49:41;9.03;;;7.95;;
26484;SDS011;18083;50.560;7.262;2023-10-19T17:52:10;8.33;;;7.42;;
26484;SDS011;18083;50.560;7.262;2023-10-19T17:54:42;12.98;;;8.95;;
26484;SDS011;18083;50.560;7.262;2023-10-19T17:57:16;11.68;;;7.97;;
26484;SDS011;18083;50.560;7.262;2023-10-19T17:59:44;12.47;;;8.43;;
26484;SDS011;18083;50.560;7.262;2023-10-19T18:02:13;11.85;;;8.88;;
26484;SDS011;18083;50.560;7.262;2023-10-19T18:04:42;17.52;;;9.90;;
26484;SDS011;18083;50.560;7.262;2023-10-19T18:07:13;17.60;;;11.10;;
26484;SDS011;18083;50.560;7.262;2023-10-19T18:09:42;15.48;;;10.15;;
26484;SDS011;18083;50.560;7.262;2023-10-19T18:12:11;17.12;;;10.25;;
26484;SDS011;18083;50.560;7.262;2023-10-19T18:14:40;11.35;;;9.78;;
26484;SDS011;18083;50.560;7.262;2023-10-19T18:17:09;11.85;;;8.98;;
26484;SDS011;18083;50.560;7.262;2023-10-19T18:19:37;11.40;;;10.20;;
26484;SDS011;18083;50.560;7.262;2023-10-19T18:22:09;15.45;;;10.38;;
26484;SDS011;18083;50.560;7.262;2023-10-19T18:24:37;11.95;;;9.83;;
26484;SDS011;18083;50.560;7.262;2023-10-19T18:27:06;16.77;;;11.20;;
26484;SDS011;18083;50.560;7.262;2023-10-19T18:29:39;15.35;;;9.90;;
26484;SDS011;18083;50.560;7.262;2023-10-19T18:32:14;10.93;;;8.78;;
26484;SDS011;18083;50.560;7.262;2023-10-19T18:34:38;13.32;;;9.40;;
26484;SDS011;18083;50.560;7.262;2023-10-19T18:37:06;15.75;;;11.65;;
26484;SDS011;18083;50.560;7.262;2023-10-19T18:39:39;14.55;;;11.57;;
26484;SDS011;18083;50.560;7.262;2023-10-19T18:42:08;13.60;;;10.60;;
26484;SDS011;18083;50.560;7.262;2023-10-19T18:44:35;16.00;;;9.03;;
26484;SDS011;18083;50.560;7.262;2023-10-19T18:47:03;12.23;;;9.63;;
26484;SDS011;18083;50.560;7.262;2023-10-19T18:49:30;9.98;;;8.90;;
26484;SDS011;18083;50.560;7.262;2023-10-19T18:51:58;15.43;;;9.38;;
26484;SDS011;18083;50.560;7.262;2023-10-19T18:54:26;11.73;;;9.53;;
26484;SDS011;18083;50.560;7.262;2023-10-19T18:56:53;11.90;;;9.90;;
26484;SDS011;18083;50.560;7.262;2023-10-19T18:59:22;12.10;;;10.88;;
26484;SDS011;18083;50.560;7.262;2023-10-19T19:01:49;10.72;;;9.63;;
26484;SDS011;18083;50.560;7.262;2023-10-19T19:09:30;14.55;;;8.48;;
26484;SDS011;18083;50.560;7.262;2023-10-19T19:11:57;15.43;;;9.55;;
26484;SDS011;18083;50.560;7.262;2023-10-19T19:14:25;14.90;;;10.32;;
26484;SDS011;18083;50.560;7.262;2023-10-19T19:16:52;13.53;;;9.08;;
26484;SDS011;18083;50.560;7.262;2023-10-19T19:19:20;13.32;;;9.35;;
26484;SDS011;18083;50.560;7.262;2023-10-19T19:21:48;11.83;;;9.95;;
26484;SDS011;18083;50.560;7.262;2023-10-19T20:57:01;18.10;;;14.00;;
26484;SDS011;18083;50.560;7.262;2023-10-19T20:59:29;16.52;;;12.47;;
26484;SDS011;18083;50.560;7.262;2023-10-19T21:01:56;19.52;;;14.80;;
26484;SDS011;18083;50.560;7.262;2023-10-19T21:12:33;14.33;;;12.47;;
26484;SDS011;18083;50.560;7.262;2023-10-19T21:15:03;17.48;;;12.98;;
26484;SDS011;18083;50.560;7.262;2023-10-19T21:17:30;17.55;;;12.45;;
26484;SDS011;18083;50.560;7.262;2023-10-19T21:19:57;15.45;;;13.48;;
26484;SDS011;18083;50.560;7.262;2023-10-19T21:22:25;23.38;;;15.25;;
26484;SDS011;18083;50.560;7.262;2023-10-19T21:27:48;17.50;;;13.32;;
26484;SDS011;18083;50.560;7.262;2023-10-19T21:30:15;21.73;;;14.05;;
26484;SDS011;18083;50.560;7.262;2023-10-19T21:32:44;14.95;;;12.50;;
26484;SDS011;18083;50.560;7.262;2023-10-19T22:01:34;12.40;;;9.38;;
26484;SDS011;18083;50.560;7.262;2023-10-19T22:04:03;11.83;;;9.65;;
26484;SDS011;18083;50.560;7.262;2023-10-19T22:06:31;14.10;;;10.20;;
26484;SDS011;18083;50.560;7.262;2023-10-19T22:08:58;13.80;;;10.00;;
26484;SDS011;18083;50.560;7.262;2023-10-19T22:11:26;10.00;;;8.63;;
26484;SDS011;18083;50.560;7.262;2023-10-19T22:13:54;13.28;;;8.43;;
26484;SDS011;18083;50.560;7.262;2023-10-19T22:16:21;12.10;;;8.68;;
26484;SDS011;18083;50.560;7.262;2023-10-19T22:18:50;10.82;;;8.55;;
26484;SDS011;18083;50.560;7.262;2023-10-19T22:21:19;10.58;;;8.93;;
26484;SDS011;18083;50.560;7.262;2023-10-19T22:23:46;12.98;;;9.93;;
26484;SDS011;18083;50.560;7.262;2023-10-19T22:26:14;10.93;;;8.23;;
26484;SDS011;18083;50.560;7.262;2023-10-19T22:28:43;13.72;;;9.63;;
26484;SDS011;18083;50.560;7.262;2023-10-19T22:31:10;12.47;;;9.10;;
26484;SDS011;18083;50.560;7.262;2023-10-19T22:44:51;16.40;;;10.30;;
26484;SDS011;18083;50.560;7.262;2023-10-19T22:47:19;13.58;;;10.05;;
26484;SDS011;18083;50.560;7.262;2023-10-19T22:49:46;15.93;;;10.43;;
26484;SDS011;18083;50.560;7.262;2023-10-19T22:52:13;17.05;;;10.20;;
26484;SDS011;18083;50.560;7.262;2023-10-19T22:57:37;16.30;;;11.08;;
26484;SDS011;18083;50.560;7.262;2023-10-19T23:00:10;16.00;;;9.98;;
26484;SDS011;18083;50.560;7.262;2023-10-19T23:02:36;14.50;;;10.35;;
26484;SDS011;18083;50.560;7.262;2023-10-19T23:10:58;15.72;;;11.78;;
26484;SDS011;18083;50.560;7.262;2023-10-19T23:13:25;15.38;;;11.63;;
26484;SDS011;18083;50.560;7.262;2023-10-19T23:15:54;15.10;;;11.20;;